Flight Track Log - Related Links

Times and Time Zones

All times are in EDT time to prevent confusion due to time zone crossing. See the SWA3667 flight status page for this flight to view local times or setup timezone preferences in your user account.

Time Position Orientation Groundspeed Altitude Reporting Facility
EDT Latitude Longitude Course Direction KTS MPH feet Rate Location/Type
Sat 08:33:49 PM 36.0764 -115.1600 269° West 149 171 3,000  Level Los Angeles Center
Sat 08:34:08 PM 36.0761 -115.1789 269° West 164 189 3,400 2,278 Climbing Los Angeles Center
Sat 08:35:08 PM 36.0675 -115.2481 261° West 219 252 6,000 2,452 Climbing Los Angeles Center
Sat 08:36:03 PM 36.0103 -115.2828 206° Southwest 280 322 8,100 2,057 Climbing Los Angeles Center
Sat 08:36:18 PM 36.0036 -115.2797 160° South 265 305 8,400 2,754 Climbing Los Angeles Center
Sat 08:37:04 PM 35.9642 -115.1997 121° Southeast 324 373 10,900 3,000 Climbing Los Angeles Center
Sat 08:37:20 PM 35.9583 -115.1667 102° East 315 362 11,500 2,104 Climbing Los Angeles Center
Sat 08:38:21 PM 35.9428 -115.0694 101° East 346 398 13,600 2,488 Climbing Los Angeles Center
Sat 08:39:23 PM 35.9156 -114.9200 103° East 366 421 16,600 2,661 Climbing Los Angeles Center
Sat 08:40:25 PM 35.8908 -114.7842 103° East 400 460 19,100 2,146 Climbing Los Angeles Center
Sat 08:41:26 PM 35.8642 -114.6458 103° East 414 476 21,000 1,854 Climbing Los Angeles Center
Sat 08:42:28 PM 35.8119 -114.5119 116° Southeast 437 503 22,900 1,887 Climbing Los Angeles Center
Sat 08:43:30 PM 35.7428 -114.3844 124° Southeast 446 513 24,900 1,597 Climbing Los Angeles Center
Sat 08:44:32 PM 35.6633 -114.2333 123° Southeast 459 528 26,200 1,366 Climbing Los Angeles Center
Sat 08:45:33 PM 35.5900 -114.0975 124° Southeast 475 547 27,700 1,512 Climbing Los Angeles Center
Sat 08:46:35 PM 35.5156 -113.9583 123° Southeast 488 562 29,300 1,403 Climbing Los Angeles Center
Sat 08:47:37 PM 35.4408 -113.8186 123° Southeast 494 568 30,600 1,317 Climbing Los Angeles Center
Sat 08:48:38 PM 35.3792 -113.7050 124° Southeast 503 579 32,000 1,171 Climbing Los Angeles Center
Sat 08:49:40 PM 35.2714 -113.5086 124° Southeast 501 577 33,000 484 Climbing Los Angeles Center
Sat 08:50:42 PM 35.1950 -113.3669 123° Southeast 505 581 33,000  Level Los Angeles Center
Sat 08:51:55 PM 35.1178 -113.2281 124° Southeast 503 579 33,000  Level Los Angeles Center
Sat 08:52:36 PM 35.0472 -113.1261 130° Southeast 506 582 33,000  Level Albuquerque Center
Sat 08:53:37 PM 34.9006 -113.0331 153° Southeast 503 579 33,000  Level Albuquerque Center
Sat 08:54:39 PM 34.7789 -112.9633 155° Southeast 494 568 33,000  Level Albuquerque Center
Sat 08:55:40 PM 34.6550 -112.8928 155° Southeast 494 568 33,000  Level Albuquerque Center
Sat 08:56:41 PM 34.5319 -112.8233 155° Southeast 493 567 33,000  Level Albuquerque Center
Sat 08:57:43 PM 34.4125 -112.7539 154° Southeast 491 565 33,000  Level Albuquerque Center
Sat 08:58:44 PM 34.2872 -112.6836 155° Southeast 494 568 33,000 -246 Level Albuquerque Center
Sat 08:59:45 PM 34.1400 -112.6008 155° Southeast 491 565 32,500 -537 Descending Albuquerque Center
Sat 09:00:47 PM 34.0192 -112.5336 155° Southeast 482 555 31,900 -537 Descending Albuquerque Center
Sat 09:01:48 PM 33.9017 -112.4675 155° Southeast 473 544 31,400 -443 Descending Albuquerque Center
Sat 09:02:49 PM 33.7806 -112.3992 155° Southeast 481 554 31,000 -195 Descending Albuquerque Center
Sat 09:03:51 PM 33.6581 -112.3319 155° Southeast 488 562 31,000  Level Albuquerque Center
Sat 09:04:52 PM 33.5367 -112.2633 155° Southeast 487 560 31,000 -244 Level Albuquerque Center
Sat 09:05:54 PM 33.4133 -112.1953 155° Southeast 489 563 30,500 -780 Descending Albuquerque Center
Sat 09:06:55 PM 33.2653 -112.1147 156° South 490 564 29,400 -984 Descending Albuquerque Center
Sat 09:07:56 PM 33.1411 -112.0475 156° South 491 565 28,500 -878 Descending Albuquerque Center
Sat 09:08:58 PM 33.0153 -111.9783 155° Southeast 496 571 27,600 -1,512 Descending Albuquerque Center
Sat 09:09:59 PM 32.8911 -111.9086 155° Southeast 495 570 25,400 -2,459 Descending Albuquerque Center
Sat 09:11:00 PM 32.7831 -111.8208 146° Southeast 474 545 22,600 -2,732 Descending Albuquerque Center
Sat 09:12:02 PM 32.6789 -111.7350 145° Southeast 459 528 19,800 -2,860 Descending Albuquerque Center
Sat 09:12:26 PM 32.6264 -111.6956 148° Southeast 450 518 18,500 -2,656 Descending Albuquerque Center
Sat 09:13:03 PM 32.5803 -111.6558 144° Southeast 437 503 17,100 -2,712 Descending Albuquerque Center
Sat 09:13:39 PM 32.5178 -111.5853 136° Southeast 422 486 15,200 -2,557 Descending Albuquerque Center
Sat 09:14:04 PM 32.5039 -111.5561 119° Southeast 418 481 14,500 -2,164 Descending Albuquerque Center
Sat 09:14:40 PM 32.4475 -111.4853 133° Southeast 393 452 13,000 -2,323 Descending Albuquerque Center
Sat 09:15:06 PM 32.4169 -111.4444 132° Southeast 391 450 12,100 -1,600 Descending Albuquerque Center
Sat 09:15:40 PM 32.3778 -111.4003 136° Southeast 360 414 11,400 -1,279 Descending Albuquerque Center
Sat 09:16:07 PM 32.3511 -111.3653 132° Southeast 354 407 10,800 -1,082 Descending Albuquerque Center
Sat 09:16:41 PM 32.3164 -111.3258 136° Southeast 323 372 10,300 -984 Descending Albuquerque Center
Sat 09:17:08 PM 32.2914 -111.2928 132° Southeast 320 368 9,800 -1,082 Descending Albuquerque Center
Sat 09:17:42 PM 32.2519 -111.2475 136° Southeast 308 354 9,200 -871 Descending Albuquerque Center
Sat 09:18:10 PM 32.2319 -111.2208 132° Southeast 309 356 8,900 -1,200 Descending Albuquerque Center
Sat 09:18:42 PM 32.1931 -111.1750 135° Southeast 308 354 8,000 -1,475 Descending Albuquerque Center
Sat 09:19:11 PM 32.1731 -111.1497 133° Southeast 305 351 7,400 -1,475 Descending Albuquerque Center
Sat 09:19:43 PM 32.1369 -111.1069 135° Southeast 293 337 6,500 -1,574 Descending Albuquerque Center
Sat 09:20:12 PM 32.1172 -111.0800 131° Southeast 299 344 5,800 -1,700 Descending Albuquerque Center
Sat 09:20:43 PM 32.0808 -111.0392 136° Southeast 289 333 4,800 -1,065 Descending Albuquerque Center
Sat 09:21:14 PM 32.0650 -111.0097 122° Southeast 292 336 4,700 -122 Descending Albuquerque Center
Sat 09:21:32 PM 32.0494 -110.9769 119° Southeast 255 293 4,700 -98 Level Albuquerque Center
Sat 09:22:15 PM 32.0508 -110.9281 88° East 267 307 4,600 -600 Descending Albuquerque Center
Sat 09:22:32 PM 32.0606 -110.9136 52° Northeast 206 237 4,100 -1,231 Descending Albuquerque Center
Sat 09:23:33 PM 32.0950 -110.9144 359° North 145 167 3,000 -1,082 Descending Albuquerque Center
Sat 09:25:00 PM 32.1000 -110.9333 344° North  Level FlightAware Approximate

Login

Don't have an account? Register now (free) for customized features, flight alerts, and more!